Siroko — UFKA — position and weather

sailwx.info

Track history (hours):
 
Tides and Currents Weather Stations Pressure Air Temp Water Temp Dewpoint Dewpoint Depression Visibility Wind Speed Wind Dir Waves Ship Positions

Siroko

Last reported at 2017-Dec-11 16:43 UTC. Time now 2017-Dec-13 20:46 UTC.
Position N 45°13' E 036°25'.

Length 33 m; draft 3.4 m.

Type: Tug. MMSI: 273442990.

Date/timePositionNaut miles runAvg speedWind from/ knotsBaromVisibWave heightAir tempDewpointWater temp
2017-Dec-11 16:43N 45°13' E 036°25'0 0.0
2017-Dec-11 16:19N 45°13' E 036°25'0 0.0
2017-Dec-11 15:04N 45°13' E 036°25'0 0.0
2017-Dec-11 14:55N 45°13' E 036°25'0 0.0
2017-Dec-11 14:22N 45°13' E 036°26'0 0.0
2017-Dec-11 13:58N 45°13' E 036°26'0 0.0
2017-Dec-11 13:19N 45°13' E 036°26'0 0.0
2017-Dec-11 12:07N 45°13' E 036°26'0 0.0
2017-Dec-11 11:55N 45°13' E 036°26'0 0.0
2017-Dec-11 11:28N 45°13' E 036°26'0 0.0
2017-Dec-11 09:21N 45°13' E 036°26'0 0.0
2017-Dec-11 07:54N 45°13' E 036°26'0 0.0
2017-Dec-11 07:30N 45°13' E 036°26'0 0.0
2017-Dec-11 07:00N 45°13' E 036°26'0 0.0
2017-Dec-11 06:27N 45°13' E 036°26'0 0.0
2017-Dec-11 05:48N 45°13' E 036°26'0 0.0
2017-Dec-11 04:48N 45°13' E 036°26'0 0.0
2017-Dec-10 15:54N 45°13' E 036°25'0 0.0
2017-Dec-10 15:18N 45°13' E 036°25'0 0.0
2017-Dec-10 15:00N 45°13' E 036°25'0 0.0
2017-Dec-10 14:21N 45°13' E 036°25'0 0.0
2017-Dec-10 13:57N 45°13' E 036°25'0 0.0
2017-Dec-10 13:30N 45°13' E 036°25'0 0.0
2017-Dec-10 13:00N 45°13' E 036°25'0 0.0
2017-Dec-10 12:30N 45°13' E 036°25'0 0.0
2017-Dec-10 11:51N 45°13' E 036°25'0 0.0
2017-Dec-10 11:18N 45°13' E 036°25'0 0.0
2017-Dec-10 10:57N 45°13' E 036°25'0 0.0
2017-Dec-10 10:27N 45°13' E 036°25'0 0.0
2017-Dec-10 10:00N 45°13' E 036°25'0 0.0
2017-Dec-10 09:24N 45°13' E 036°25'0 0.0
2017-Dec-10 08:51N 45°13' E 036°25'0 0.0
2017-Dec-10 08:24N 45°13' E 036°25'0 0.0
2017-Dec-10 08:00N 45°13' E 036°25'0 0.0
2017-Dec-10 07:27N 45°13' E 036°25'0 0.0
2017-Dec-10 06:57N 45°13' E 036°25'0 0.0
2017-Dec-10 06:27N 45°13' E 036°25'0 0.0
2017-Dec-10 06:00N 45°13' E 036°25'0 0.0
2017-Dec-10 05:27N 45°13' E 036°25'0 0.0
2017-Dec-10 05:00N 45°13' E 036°25'0 0.0
2017-Dec-10 04:27N 45°13' E 036°25'0 0.0
2017-Dec-10 03:45N 45°13' E 036°25'0 0.0
2017-Dec-10 03:30N 45°13' E 036°25'0 0.0
2017-Dec-10 02:57N 45°13' E 036°25'0 0.0
2017-Dec-10 02:08N 45°13' E 036°25'0 0.0
2017-Dec-10 01:53N 45°13' E 036°25'0 0.0
2017-Dec-10 00:17N 45°13' E 036°25'0 0.0
2017-Dec-09 23:50N 45°13' E 036°25'0 0.0
2017-Dec-09 23:28N 45°13' E 036°25'6 4.8
2017-Dec-09 22:11N 45°10' E 036°33'3 5.1
2017-Dec-09 21:38N 45°11' E 036°29'1 7.2
2017-Dec-09 21:29N 45°12' E 036°28'2 0.1
2017-Dec-08 19:30N 45°13' E 036°26'8 0.9
2017-Dec-08 10:14N 45°09' E 036°35'0 0.1
2017-Dec-08 09:37N 45°09' E 036°35'0 0.0
2017-Dec-08 07:38N 45°09' E 036°35'1 4.1
2017-Dec-08 07:22N 45°09' E 036°34'1 2.5
2017-Dec-08 06:59N 45°10' E 036°33'0 0.0
2017-Dec-08 06:30N 45°10' E 036°33'5 9.5
2017-Dec-08 06:01N 45°12' E 036°27'7 0.3
2017-Dec-07 05:02N 45°08' E 036°35'  
2017-Dec-04 09:31N 45°08' E 036°35'0 0.0
2017-Dec-04 08:35N 45°08' E 036°35'0 0.0
2017-Dec-04 08:25N 45°08' E 036°35'1 1.2
2017-Dec-04 07:20N 45°08' E 036°33'3 9.8
2017-Dec-04 06:59N 45°10' E 036°29'4 8.2
2017-Dec-04 06:30N 45°13' E 036°25'0 0.1
2017-Dec-04 06:00N 45°13' E 036°25'0 0.0
2017-Dec-04 05:30N 45°13' E 036°25'0 0.0
2017-Dec-04 04:57N 45°13' E 036°25'0 0.0
2017-Dec-04 04:30N 45°13' E 036°25'0 0.0
2017-Dec-04 03:57N 45°13' E 036°25'0 0.0
2017-Dec-04 03:30N 45°13' E 036°25'0 0.0
2017-Dec-04 02:51N 45°13' E 036°25'0 0.0
2017-Dec-04 02:27N 45°13' E 036°25'0 0.0
2017-Dec-04 01:57N 45°13' E 036°25'0 0.0
2017-Dec-04 01:30N 45°13' E 036°25'0 0.0
2017-Dec-04 01:00N 45°13' E 036°25'0 0.0
2017-Dec-04 00:30N 45°13' E 036°25'0 0.0
2017-Dec-04 00:00N 45°13' E 036°25'0 0.0
2017-Dec-03 23:30N 45°13' E 036°25'0 0.0
2017-Dec-03 22:57N 45°13' E 036°25'0 0.0
2017-Dec-03 22:21N 45°13' E 036°25'0 0.0
2017-Dec-03 21:54N 45°13' E 036°25'0 0.0
2017-Dec-03 21:30N 45°13' E 036°25'0 0.0
2017-Dec-03 21:00N 45°13' E 036°25'0 0.0
2017-Dec-03 20:28N 45°13' E 036°25'0 0.0
2017-Dec-03 19:59N 45°13' E 036°25'0 0.0
2017-Dec-03 19:23N 45°13' E 036°25'0 0.0
2017-Dec-03 18:59N 45°13' E 036°25'0 0.0
2017-Dec-03 18:26N 45°13' E 036°25'0 0.0
2017-Dec-03 17:59N 45°13' E 036°25'0 0.0
2017-Dec-03 17:14N 45°13' E 036°25'0 0.0
2017-Dec-03 16:59N 45°13' E 036°25'0 0.0
2017-Dec-03 16:23N 45°13' E 036°25'0 0.0
2017-Dec-03 15:56N 45°13' E 036°25'0 0.0
2017-Dec-03 15:26N 45°13' E 036°25'0 0.0
2017-Dec-03 14:56N 45°13' E 036°25'0 0.0
2017-Dec-03 14:29N 45°13' E 036°25'0 0.0
2017-Dec-03 13:59N 45°13' E 036°25'0 0.0
2017-Dec-03 13:26N 45°13' E 036°25'0 0.0
2017-Dec-03 12:53N 45°13' E 036°25'0 0.0
2017-Dec-03 12:29N 45°13' E 036°25'0 0.0
2017-Dec-03 11:56N 45°13' E 036°25'0 0.0
2017-Dec-03 11:26N 45°13' E 036°25'0 0.0
2017-Dec-03 10:56N 45°13' E 036°25'0 0.0
2017-Dec-03 10:29N 45°13' E 036°25'0 0.0
2017-Dec-03 09:59N 45°13' E 036°25'0 0.0
2017-Dec-03 09:26N 45°13' E 036°25'0 0.0
2017-Dec-03 08:59N 45°13' E 036°25'0 0.0
2017-Dec-03 08:29N 45°13' E 036°25'0 0.0
2017-Dec-03 07:59N 45°13' E 036°25'0 0.0
2017-Dec-03 07:29N 45°13' E 036°25'0 0.0
2017-Dec-03 06:56N 45°13' E 036°25'0 0.0
2017-Dec-03 06:26N 45°13' E 036°25'0 0.0
2017-Dec-03 05:56N 45°13' E 036°25'0 0.0
2017-Dec-03 05:29N 45°13' E 036°25'0 0.0
2017-Dec-03 04:59N 45°13' E 036°25'0 0.0
2017-Dec-03 04:29N 45°13' E 036°25'0 0.0
2017-Dec-03 03:56N 45°13' E 036°25'0 0.0
2017-Dec-03 03:26N 45°13' E 036°25'0 0.0
2017-Dec-03 02:50N 45°13' E 036°25'0 0.0
2017-Dec-03 02:29N 45°13' E 036°25'0 0.0
2017-Dec-03 01:56N 45°13' E 036°25'0 0.0
2017-Dec-03 01:20N 45°13' E 036°25'0 0.0
2017-Dec-03 00:53N 45°13' E 036°25'0 0.0
2017-Dec-03 00:23N 45°13' E 036°25'0 0.0
2017-Dec-02 23:56N 45°13' E 036°25'0 0.0
2017-Dec-02 23:26N 45°13' E 036°25'0 0.0
2017-Dec-02 22:50N 45°13' E 036°25'0 0.0
2017-Dec-02 22:30N 45°13' E 036°25'0 0.0
2017-Dec-02 21:50N 45°13' E 036°25'0 0.0
2017-Dec-02 21:26N 45°13' E 036°25'0 0.0
2017-Dec-02 18:35N 45°13' E 036°25'0 0.0
2017-Dec-02 18:14N 45°13' E 036°25'0 0.0
2017-Dec-02 16:17N 45°13' E 036°25'0 0.0
2017-Dec-02 15:50N 45°13' E 036°25'0 0.0
2017-Dec-02 15:26N 45°13' E 036°25'0 0.0
2017-Dec-02 14:50N 45°13' E 036°25'0 0.0
2017-Dec-02 14:29N 45°13' E 036°25'0 0.0
2017-Dec-02 13:59N 45°13' E 036°25'0 0.0
2017-Dec-02 13:29N 45°13' E 036°25'0 0.0
2017-Dec-02 12:59N 45°13' E 036°25'0 0.0
2017-Dec-02 12:26N 45°13' E 036°25'0 0.0
2017-Dec-02 11:50N 45°13' E 036°25'0 0.0
2017-Dec-02 11:26N 45°13' E 036°25'0 0.0
2017-Dec-02 10:59N 45°13' E 036°25'0 0.0
2017-Dec-02 10:29N 45°13' E 036°25'0 0.0
2017-Dec-02 09:59N 45°13' E 036°25'0 0.0
2017-Dec-02 09:20N 45°13' E 036°25'0 0.0
2017-Dec-02 08:56N 45°13' E 036°25'0 0.0
2017-Dec-02 08:26N 45°13' E 036°25'0 0.0
2017-Dec-02 07:59N 45°13' E 036°25'0 0.0
2017-Dec-02 07:29N 45°13' E 036°25'0 0.0
2017-Dec-02 06:59N 45°13' E 036°25'0 0.0
2017-Dec-02 06:29N 45°13' E 036°25'0 0.0
2017-Dec-02 05:59N 45°13' E 036°25'0 0.0
2017-Dec-02 05:29N 45°13' E 036°25'0 0.0
2017-Dec-02 04:59N 45°13' E 036°25'0 0.0
2017-Dec-02 04:29N 45°13' E 036°25'0 0.0
2017-Dec-02 03:59N 45°13' E 036°25'0 0.0
2017-Dec-02 00:46N 45°13' E 036°25'0 0.0
2017-Dec-02 00:16N 45°13' E 036°25'0 0.0
2017-Dec-01 23:49N 45°13' E 036°25'0 0.0
2017-Dec-01 23:13N 45°13' E 036°25'0 0.0
2017-Dec-01 22:58N 45°13' E 036°25'0 0.0
2017-Dec-01 21:16N 45°13' E 036°25'0 0.0
2017-Dec-01 20:46N 45°13' E 036°25'0 0.0
2017-Dec-01 20:28N 45°13' E 036°25'0 0.0
2017-Dec-01 19:55N 45°13' E 036°25'0 0.0
2017-Dec-01 19:16N 45°13' E 036°25'0 0.0
2017-Dec-01 18:46N 45°13' E 036°25'0 0.0
2017-Dec-01 18:22N 45°13' E 036°25'0 0.0
2017-Dec-01 17:55N 45°13' E 036°25'0 0.0
2017-Dec-01 17:19N 45°13' E 036°25'0 0.0
2017-Dec-01 16:58N 45°13' E 036°25'  
Track history (hours):
 
Tides and Currents Weather Stations Pressure Air Temp Water Temp Dewpoint Dewpoint Depression Visibility Wind Speed Wind Dir Waves Ship Positions

Siroko

Last reported at 2017-Dec-11 16:43 UTC. Time now 2017-Dec-13 20:46 UTC.
Position N 45°13' E 036°25'.

Length 33 m; draft 3.4 m.

Type: Tug. MMSI: 273442990.

Date/timePositionNaut miles runAvg speedWind from/ knotsBaromVisibWave heightAir tempDewpointWater temp
2017-Dec-11 16:43N 45°13' E 036°25'0 0.0
2017-Dec-11 16:19N 45°13' E 036°25'0 0.0
2017-Dec-11 15:04N 45°13' E 036°25'0 0.0
2017-Dec-11 14:55N 45°13' E 036°25'0 0.0
2017-Dec-11 14:22N 45°13' E 036°26'0 0.0
2017-Dec-11 13:58N 45°13' E 036°26'0 0.0
2017-Dec-11 13:19N 45°13' E 036°26'0 0.0
2017-Dec-11 12:07N 45°13' E 036°26'0 0.0
2017-Dec-11 11:55N 45°13' E 036°26'0 0.0
2017-Dec-11 11:28N 45°13' E 036°26'0 0.0
2017-Dec-11 09:21N 45°13' E 036°26'0 0.0
2017-Dec-11 07:54N 45°13' E 036°26'0 0.0
2017-Dec-11 07:30N 45°13' E 036°26'0 0.0
2017-Dec-11 07:00N 45°13' E 036°26'0 0.0
2017-Dec-11 06:27N 45°13' E 036°26'0 0.0
2017-Dec-11 05:48N 45°13' E 036°26'0 0.0
2017-Dec-11 04:48N 45°13' E 036°26'0 0.0
2017-Dec-10 15:54N 45°13' E 036°25'0 0.0
2017-Dec-10 15:18N 45°13' E 036°25'0 0.0
2017-Dec-10 15:00N 45°13' E 036°25'0 0.0
2017-Dec-10 14:21N 45°13' E 036°25'0 0.0
2017-Dec-10 13:57N 45°13' E 036°25'0 0.0
2017-Dec-10 13:30N 45°13' E 036°25'0 0.0
2017-Dec-10 13:00N 45°13' E 036°25'0 0.0
2017-Dec-10 12:30N 45°13' E 036°25'0 0.0
2017-Dec-10 11:51N 45°13' E 036°25'0 0.0
2017-Dec-10 11:18N 45°13' E 036°25'0 0.0
2017-Dec-10 10:57N 45°13' E 036°25'0 0.0
2017-Dec-10 10:27N 45°13' E 036°25'0 0.0
2017-Dec-10 10:00N 45°13' E 036°25'0 0.0
2017-Dec-10 09:24N 45°13' E 036°25'0 0.0
2017-Dec-10 08:51N 45°13' E 036°25'0 0.0
2017-Dec-10 08:24N 45°13' E 036°25'0 0.0
2017-Dec-10 08:00N 45°13' E 036°25'0 0.0
2017-Dec-10 07:27N 45°13' E 036°25'0 0.0
2017-Dec-10 06:57N 45°13' E 036°25'0 0.0
2017-Dec-10 06:27N 45°13' E 036°25'0 0.0
2017-Dec-10 06:00N 45°13' E 036°25'0 0.0
2017-Dec-10 05:27N 45°13' E 036°25'0 0.0
2017-Dec-10 05:00N 45°13' E 036°25'0 0.0
2017-Dec-10 04:27N 45°13' E 036°25'0 0.0
2017-Dec-10 03:45N 45°13' E 036°25'0 0.0
2017-Dec-10 03:30N 45°13' E 036°25'0 0.0
2017-Dec-10 02:57N 45°13' E 036°25'0 0.0
2017-Dec-10 02:08N 45°13' E 036°25'0 0.0
2017-Dec-10 01:53N 45°13' E 036°25'0 0.0
2017-Dec-10 00:17N 45°13' E 036°25'0 0.0
2017-Dec-09 23:50N 45°13' E 036°25'0 0.0
2017-Dec-09 23:28N 45°13' E 036°25'6 4.8
2017-Dec-09 22:11N 45°10' E 036°33'3 5.1
2017-Dec-09 21:38N 45°11' E 036°29'1 7.2
2017-Dec-09 21:29N 45°12' E 036°28'2 0.1
2017-Dec-08 19:30N 45°13' E 036°26'8 0.9
2017-Dec-08 10:14N 45°09' E 036°35'0 0.1
2017-Dec-08 09:37N 45°09' E 036°35'0 0.0
2017-Dec-08 07:38N 45°09' E 036°35'1 4.1
2017-Dec-08 07:22N 45°09' E 036°34'1 2.5
2017-Dec-08 06:59N 45°10' E 036°33'0 0.0
2017-Dec-08 06:30N 45°10' E 036°33'5 9.5
2017-Dec-08 06:01N 45°12' E 036°27'7 0.3
2017-Dec-07 05:02N 45°08' E 036°35'  
2017-Dec-04 09:31N 45°08' E 036°35'0 0.0
2017-Dec-04 08:35N 45°08' E 036°35'0 0.0
2017-Dec-04 08:25N 45°08' E 036°35'1 1.2
2017-Dec-04 07:20N 45°08' E 036°33'3 9.8
2017-Dec-04 06:59N 45°10' E 036°29'4 8.2
2017-Dec-04 06:30N 45°13' E 036°25'0 0.1
2017-Dec-04 06:00N 45°13' E 036°25'0 0.0
2017-Dec-04 05:30N 45°13' E 036°25'0 0.0
2017-Dec-04 04:57N 45°13' E 036°25'0 0.0
2017-Dec-04 04:30N 45°13' E 036°25'0 0.0
2017-Dec-04 03:57N 45°13' E 036°25'0 0.0
2017-Dec-04 03:30N 45°13' E 036°25'0 0.0
2017-Dec-04 02:51N 45°13' E 036°25'0 0.0
2017-Dec-04 02:27N 45°13' E 036°25'0 0.0
2017-Dec-04 01:57N 45°13' E 036°25'0 0.0
2017-Dec-04 01:30N 45°13' E 036°25'0 0.0
2017-Dec-04 01:00N 45°13' E 036°25'0 0.0
2017-Dec-04 00:30N 45°13' E 036°25'0 0.0
2017-Dec-04 00:00N 45°13' E 036°25'0 0.0
2017-Dec-03 23:30N 45°13' E 036°25'0 0.0
2017-Dec-03 22:57N 45°13' E 036°25'0 0.0
2017-Dec-03 22:21N 45°13' E 036°25'0 0.0
2017-Dec-03 21:54N 45°13' E 036°25'0 0.0
2017-Dec-03 21:30N 45°13' E 036°25'0 0.0
2017-Dec-03 21:00N 45°13' E 036°25'0 0.0
2017-Dec-03 20:28N 45°13' E 036°25'0 0.0
2017-Dec-03 19:59N 45°13' E 036°25'0 0.0
2017-Dec-03 19:23N 45°13' E 036°25'0 0.0
2017-Dec-03 18:59N 45°13' E 036°25'0 0.0
2017-Dec-03 18:26N 45°13' E 036°25'0 0.0
2017-Dec-03 17:59N 45°13' E 036°25'0 0.0
2017-Dec-03 17:14N 45°13' E 036°25'0 0.0
2017-Dec-03 16:59N 45°13' E 036°25'0 0.0
2017-Dec-03 16:23N 45°13' E 036°25'0 0.0
2017-Dec-03 15:56N 45°13' E 036°25'0 0.0
2017-Dec-03 15:26N 45°13' E 036°25'0 0.0
2017-Dec-03 14:56N 45°13' E 036°25'0 0.0
2017-Dec-03 14:29N 45°13' E 036°25'0 0.0
2017-Dec-03 13:59N 45°13' E 036°25'0 0.0
2017-Dec-03 13:26N 45°13' E 036°25'0 0.0
2017-Dec-03 12:53N 45°13' E 036°25'0 0.0
2017-Dec-03 12:29N 45°13' E 036°25'0 0.0
2017-Dec-03 11:56N 45°13' E 036°25'0 0.0
2017-Dec-03 11:26N 45°13' E 036°25'0 0.0
2017-Dec-03 10:56N 45°13' E 036°25'0 0.0
2017-Dec-03 10:29N 45°13' E 036°25'0 0.0
2017-Dec-03 09:59N 45°13' E 036°25'0 0.0
2017-Dec-03 09:26N 45°13' E 036°25'0 0.0
2017-Dec-03 08:59N 45°13' E 036°25'0 0.0
2017-Dec-03 08:29N 45°13' E 036°25'0 0.0
2017-Dec-03 07:59N 45°13' E 036°25'0 0.0
2017-Dec-03 07:29N 45°13' E 036°25'0 0.0
2017-Dec-03 06:56N 45°13' E 036°25'0 0.0
2017-Dec-03 06:26N 45°13' E 036°25'0 0.0
2017-Dec-03 05:56N 45°13' E 036°25'0 0.0
2017-Dec-03 05:29N 45°13' E 036°25'0 0.0
2017-Dec-03 04:59N 45°13' E 036°25'0 0.0
2017-Dec-03 04:29N 45°13' E 036°25'0 0.0
2017-Dec-03 03:56N 45°13' E 036°25'0 0.0
2017-Dec-03 03:26N 45°13' E 036°25'0 0.0
2017-Dec-03 02:50N 45°13' E 036°25'0 0.0
2017-Dec-03 02:29N 45°13' E 036°25'0 0.0
2017-Dec-03 01:56N 45°13' E 036°25'0 0.0
2017-Dec-03 01:20N 45°13' E 036°25'0 0.0
2017-Dec-03 00:53N 45°13' E 036°25'0 0.0
2017-Dec-03 00:23N 45°13' E 036°25'0 0.0
2017-Dec-02 23:56N 45°13' E 036°25'0 0.0
2017-Dec-02 23:26N 45°13' E 036°25'0 0.0
2017-Dec-02 22:50N 45°13' E 036°25'0 0.0
2017-Dec-02 22:30N 45°13' E 036°25'0 0.0
2017-Dec-02 21:50N 45°13' E 036°25'0 0.0
2017-Dec-02 21:26N 45°13' E 036°25'0 0.0
2017-Dec-02 18:35N 45°13' E 036°25'0 0.0
2017-Dec-02 18:14N 45°13' E 036°25'0 0.0
2017-Dec-02 16:17N 45°13' E 036°25'0 0.0
2017-Dec-02 15:50N 45°13' E 036°25'0 0.0
2017-Dec-02 15:26N 45°13' E 036°25'0 0.0
2017-Dec-02 14:50N 45°13' E 036°25'0 0.0
2017-Dec-02 14:29N 45°13' E 036°25'0 0.0
2017-Dec-02 13:59N 45°13' E 036°25'0 0.0
2017-Dec-02 13:29N 45°13' E 036°25'0 0.0
2017-Dec-02 12:59N 45°13' E 036°25'0 0.0
2017-Dec-02 12:26N 45°13' E 036°25'0 0.0
2017-Dec-02 11:50N 45°13' E 036°25'0 0.0
2017-Dec-02 11:26N 45°13' E 036°25'0 0.0
2017-Dec-02 10:59N 45°13' E 036°25'0 0.0
2017-Dec-02 10:29N 45°13' E 036°25'0 0.0
2017-Dec-02 09:59N 45°13' E 036°25'0 0.0
2017-Dec-02 09:20N 45°13' E 036°25'0 0.0
2017-Dec-02 08:56N 45°13' E 036°25'0 0.0
2017-Dec-02 08:26N 45°13' E 036°25'0 0.0
2017-Dec-02 07:59N 45°13' E 036°25'0 0.0
2017-Dec-02 07:29N 45°13' E 036°25'0 0.0
2017-Dec-02 06:59N 45°13' E 036°25'0 0.0
2017-Dec-02 06:29N 45°13' E 036°25'0 0.0
2017-Dec-02 05:59N 45°13' E 036°25'0 0.0
2017-Dec-02 05:29N 45°13' E 036°25'0 0.0
2017-Dec-02 04:59N 45°13' E 036°25'0 0.0
2017-Dec-02 04:29N 45°13' E 036°25'0 0.0
2017-Dec-02 03:59N 45°13' E 036°25'0 0.0
2017-Dec-02 00:46N 45°13' E 036°25'0 0.0
2017-Dec-02 00:16N 45°13' E 036°25'0 0.0
2017-Dec-01 23:49N 45°13' E 036°25'0 0.0
2017-Dec-01 23:13N 45°13' E 036°25'0 0.0
2017-Dec-01 22:58N 45°13' E 036°25'0 0.0
2017-Dec-01 21:16N 45°13' E 036°25'0 0.0
2017-Dec-01 20:46N 45°13' E 036°25'0 0.0
2017-Dec-01 20:28N 45°13' E 036°25'0 0.0
2017-Dec-01 19:55N 45°13' E 036°25'0 0.0
2017-Dec-01 19:16N 45°13' E 036°25'0 0.0
2017-Dec-01 18:46N 45°13' E 036°25'0 0.0
2017-Dec-01 18:22N 45°13' E 036°25'0 0.0
2017-Dec-01 17:55N 45°13' E 036°25'0 0.0
2017-Dec-01 17:19N 45°13' E 036°25'0 0.0
2017-Dec-01 16:58N 45°13' E 036°25'  

Dump ship's entire track history